Time;durP1;ratioP1;P1;durP2;ratioP2;P2;SDS_P1;SDS_P2;PMS_P1;PMS_P2;Temp;Humidity;BMP_temperature;BMP_pressure;BME280_temperature;BME280_humidity;BME280_pressure;Samples;Min_cycle;Max_cycle;Signal;HPM_P1;HPM_P2
2023/04/24 00:00:25;;;;;;;0.43;0.30;;;18.30;59.80;;;;;;5077079;28;20193;-48
2023/04/24 00:02:57;;;;;;;0.40;0.30;;;18.30;59.80;;;;;;5074095;28;20194;-48
2023/04/24 00:05:25;;;;;;;0.40;0.40;;;18.30;59.80;;;;;;5050337;28;20286;-48
2023/04/24 00:07:55;;;;;;;0.40;0.40;;;18.30;59.80;;;;;;5059030;28;20208;-48
2023/04/24 00:10:25;;;;;;;0.40;0.40;;;18.30;59.80;;;;;;5051257;28;20217;-48
2023/04/24 00:12:56;;;;;;;0.70;0.50;;;18.30;59.80;;;;;;5051191;28;20225;-47
2023/04/24 00:15:40;;;;;;;0.50;0.50;;;18.30;59.80;;;;;;5072129;28;20687;-47
2023/04/24 00:18:09;;;;;;;1.80;0.47;;;18.30;59.80;;;;;;5068558;28;20186;-48
2023/04/24 00:20:39;;;;;;;0.57;0.50;;;18.30;59.80;;;;;;5034003;28;20208;-48
2023/04/24 00:23:10;;;;;;;1.03;0.70;;;18.20;59.80;;;;;;5070349;28;20646;-49
2023/04/24 00:25:41;;;;;;;0.77;0.60;;;18.30;59.90;;;;;;5071363;28;20218;-48
2023/04/24 00:28:12;;;;;;;1.53;0.60;;;18.30;59.90;;;;;;5065689;28;20197;-48
2023/04/24 00:30:44;;;;;;;0.70;0.53;;;18.20;59.90;;;;;;5067033;28;20247;-48
2023/04/24 00:33:14;;;;;;;0.80;0.60;;;18.20;59.90;;;;;;5054015;28;20210;-48
2023/04/24 00:35:48;;;;;;;1.50;0.80;;;18.30;59.90;;;;;;5040557;28;20235;-48
2023/04/24 00:38:19;;;;;;;1.10;0.90;;;18.30;60.00;;;;;;5055302;28;20201;-48
2023/04/24 00:40:50;;;;;;;1.20;0.70;;;18.20;59.90;;;;;;5053043;28;20198;-48
2023/04/24 00:43:19;;;;;;;0.60;0.60;;;18.20;59.90;;;;;;5029001;28;20229;-48
2023/04/24 00:45:49;;;;;;;0.80;0.70;;;18.20;59.90;;;;;;5052777;28;20214;-48
2023/04/24 00:48:18;;;;;;;2.10;0.60;;;18.30;59.90;;;;;;5031783;28;20210;-48
2023/04/24 00:51:00;;;;;;;0.80;0.60;;;18.20;59.90;;;;;;5046977;28;20221;-48
2023/04/24 00:53:30;;;;;;;0.50;0.50;;;18.20;59.80;;;;;;5050500;28;20679;-48
2023/04/24 00:56:02;;;;;;;1.13;0.90;;;18.20;59.90;;;;;;5057035;28;20201;-48
2023/04/24 00:58:31;;;;;;;1.07;0.70;;;18.20;59.80;;;;;;5038314;28;20206;-48
2023/04/24 01:01:02;;;;;;;0.80;0.80;;;18.20;59.80;;;;;;5028295;28;20182;-48
2023/04/24 01:03:36;;;;;;;0.80;0.80;;;18.20;59.80;;;;;;5040127;28;20238;-48
2023/04/24 01:06:06;;;;;;;1.00;0.90;;;18.20;59.90;;;;;;5038288;28;20544;-48
2023/04/24 01:08:41;;;;;;;1.37;0.83;;;18.20;59.80;;;;;;5030515;28;20199;-48
2023/04/24 01:11:13;;;;;;;0.77;0.73;;;18.30;59.90;;;;;;5029760;28;20239;-48
2023/04/24 01:13:46;;;;;;;1.20;0.80;;;18.20;59.90;;;;;;5032647;28;20233;-48
2023/04/24 01:16:20;;;;;;;1.90;0.90;;;18.20;59.90;;;;;;5049497;28;20686;-48
2023/04/24 01:18:49;;;;;;;2.73;1.10;;;18.20;59.80;;;;;;5048454;28;20206;-48
2023/04/24 01:21:23;;;;;;;1.47;0.70;;;18.20;59.80;;;;;;5038835;28;20435;-48
2023/04/24 01:23:55;;;;;;;1.67;0.80;;;18.20;59.80;;;;;;5050669;28;20198;-48
2023/04/24 01:26:26;;;;;;;1.97;1.00;;;18.20;59.80;;;;;;5033788;28;20202;-48
2023/04/24 01:28:55;;;;;;;2.53;1.13;;;18.20;59.80;;;;;;5050409;28;20213;-47
2023/04/24 01:31:24;;;;;;;1.10;0.80;;;18.20;59.90;;;;;;5053048;28;20647;-48
2023/04/24 01:33:57;;;;;;;2.57;1.10;;;18.20;59.80;;;;;;5047941;28;20214;-48
2023/04/24 01:36:32;;;;;;;1.40;0.77;;;18.20;59.80;;;;;;5060573;28;20582;-48
2023/04/24 01:39:00;;;;;;;1.93;1.00;;;18.20;59.90;;;;;;5070117;28;20197;-47
2023/04/24 01:41:31;;;;;;;2.07;1.00;;;18.20;59.80;;;;;;5041960;28;20199;-48
2023/04/24 01:44:02;;;;;;;1.23;1.13;;;18.20;59.80;;;;;;5050600;28;20203;-48
2023/04/24 01:46:31;;;;;;;1.43;1.00;;;18.20;59.80;;;;;;5037891;28;20208;-48
2023/04/24 01:49:02;;;;;;;1.70;1.10;;;18.20;59.80;;;;;;5072155;28;20198;-48
2023/04/24 01:51:33;;;;;;;2.20;1.37;;;18.20;59.80;;;;;;5070134;28;20208;-49
2023/04/24 01:54:03;;;;;;;2.30;1.10;;;18.20;59.80;;;;;;5079856;28;20221;-48
2023/04/24 01:56:36;;;;;;;1.93;1.23;;;18.20;59.80;;;;;;5071992;28;20189;-48
2023/04/24 01:59:14;;;;;;;1.70;1.30;;;18.20;59.80;;;;;;5075052;28;20609;-48
2023/04/24 02:01:45;;;;;;;2.03;1.20;;;18.20;59.80;;;;;;5073759;28;20186;-48
2023/04/24 02:04:15;;;;;;;1.60;1.20;;;18.20;59.90;;;;;;5070344;28;20220;-48
2023/04/24 02:06:47;;;;;;;1.70;1.17;;;18.20;59.90;;;;;;5079795;28;20209;-48
2023/04/24 02:09:19;;;;;;;2.23;1.40;;;18.20;59.90;;;;;;5072478;28;20244;-48
2023/04/24 02:11:48;;;;;;;1.47;1.00;;;18.20;59.80;;;;;;5071138;28;20259;-47
2023/04/24 02:14:16;;;;;;;1.27;1.17;;;18.20;59.90;;;;;;5072473;28;20570;-48
2023/04/24 02:16:44;;;;;;;2.50;1.30;;;18.20;59.80;;;;;;5069180;28;20237;-48
2023/04/24 02:19:15;;;;;;;2.03;1.37;;;18.20;59.80;;;;;;5070157;28;20205;-48
2023/04/24 02:21:47;;;;;;;1.67;1.10;;;18.20;59.80;;;;;;5063931;28;20205;-48
2023/04/24 02:24:17;;;;;;;1.73;1.40;;;18.20;59.90;;;;;;5072085;28;20190;-47
2023/04/24 02:26:45;;;;;;;1.43;1.33;;;18.20;59.90;;;;;;5071582;28;20190;-48
2023/04/24 02:29:15;;;;;;;2.30;1.50;;;18.20;59.90;;;;;;5066319;28;20209;-48
2023/04/24 02:31:47;;;;;;;2.10;1.37;;;18.10;59.80;;;;;;5060288;28;20198;-48
2023/04/24 02:34:19;;;;;;;1.40;1.30;;;18.10;59.80;;;;;;5076383;28;20230;-48
2023/04/24 02:36:49;;;;;;;2.40;1.50;;;18.10;59.80;;;;;;5048587;28;20242;-47
2023/04/24 02:39:18;;;;;;;1.63;1.50;;;18.10;59.80;;;;;;5045472;28;20194;-48
2023/04/24 02:41:53;;;;;;;3.37;1.30;;;18.20;59.80;;;;;;5056371;28;20197;-47
2023/04/24 02:44:24;;;;;;;2.50;1.60;;;18.20;59.90;;;;;;5050099;28;20217;-48
2023/04/24 02:46:54;;;;;;;1.37;1.27;;;18.10;59.80;;;;;;5052805;28;20206;-48
2023/04/24 02:49:25;;;;;;;2.30;1.67;;;18.10;59.80;;;;;;5050560;28;20202;-48
2023/04/24 02:51:57;;;;;;;2.13;1.53;;;18.10;59.80;;;;;;5046894;28;20199;-48
2023/04/24 02:54:27;;;;;;;1.37;1.27;;;18.10;59.80;;;;;;5053617;28;20218;-48
2023/04/24 02:56:57;;;;;;;2.03;1.57;;;18.20;59.90;;;;;;5062803;28;20186;-47
2023/04/24 02:59:28;;;;;;;2.57;2.00;;;18.10;59.80;;;;;;5053541;28;20210;-48
2023/04/24 03:02:01;;;;;;;2.70;1.57;;;18.10;59.80;;;;;;5050258;28;20571;-48
2023/04/24 03:04:32;;;;;;;2.23;1.33;;;18.10;59.90;;;;;;5048219;28;20198;-48
2023/04/24 03:07:04;;;;;;;2.00;1.63;;;18.10;59.80;;;;;;5048478;28;20194;-48
2023/04/24 03:09:33;;;;;;;2.33;1.50;;;18.10;59.90;;;;;;5043646;28;20201;-48
2023/04/24 03:12:01;;;;;;;3.10;1.73;;;18.10;59.90;;;;;;5059203;28;20268;-48
2023/04/24 03:14:31;;;;;;;2.67;1.57;;;18.10;59.90;;;;;;5059519;28;20222;-48
2023/04/24 03:16:58;;;;;;;1.60;1.40;;;18.10;59.90;;;;;;5049201;28;20218;-47
2023/04/24 03:19:32;;;;;;;1.97;1.60;;;18.10;59.90;;;;;;5048857;28;20202;-48
2023/04/24 03:22:03;;;;;;;2.07;1.70;;;18.10;59.90;;;;;;5032162;28;20288;-48
2023/04/24 03:24:34;;;;;;;1.70;1.60;;;18.10;59.90;;;;;;5034767;28;20549;-48
2023/04/24 03:27:05;;;;;;;3.20;1.47;;;18.10;59.90;;;;;;5049193;28;20241;-48
2023/04/24 03:29:34;;;;;;;2.80;1.87;;;18.10;60.10;;;;;;5048972;28;20233;-48
2023/04/24 03:32:05;;;;;;;2.47;1.73;;;18.10;59.90;;;;;;5042649;28;20241;-48
2023/04/24 03:34:36;;;;;;;2.30;1.63;;;18.10;59.90;;;;;;5050885;28;20219;-54
2023/04/24 03:37:05;;;;;;;2.13;1.80;;;18.10;59.90;;;;;;5062436;28;20229;-48
2023/04/24 03:39:37;;;;;;;1.70;1.53;;;18.10;59.90;;;;;;5068193;28;20283;-48
2023/04/24 03:42:05;;;;;;;1.63;1.30;;;18.10;59.90;;;;;;5074844;28;20192;-48
2023/04/24 03:44:36;;;;;;;1.67;1.53;;;18.10;59.90;;;;;;5069237;28;20185;-48
2023/04/24 03:47:06;;;;;;;1.90;1.70;;;18.10;60.00;;;;;;5054218;28;20266;-48
2023/04/24 03:49:36;;;;;;;1.93;1.70;;;18.10;60.00;;;;;;5048180;28;20197;-47
2023/04/24 03:52:08;;;;;;;2.23;1.53;;;18.10;60.10;;;;;;5058951;28;20303;-48
2023/04/24 03:54:38;;;;;;;3.00;2.00;;;18.10;60.10;;;;;;5092609;28;20223;-48
2023/04/24 03:57:06;;;;;;;3.20;1.80;;;18.10;60.10;;;;;;5093826;28;20529;-48
2023/04/24 03:59:35;;;;;;;4.10;1.90;;;18.10;60.10;;;;;;5089273;28;20223;-48
2023/04/24 04:02:04;;;;;;;2.33;1.80;;;18.10;60.10;;;;;;5089004;28;20205;-48
2023/04/24 04:04:37;;;;;;;5.40;2.07;;;18.10;60.10;;;;;;5086628;28;20225;-48
2023/04/24 04:07:09;;;;;;;3.40;1.93;;;18.10;60.10;;;;;;5088380;28;20185;-48
2023/04/24 04:09:37;;;;;;;2.27;1.73;;;18.10;60.10;;;;;;5090293;28;20602;-48
2023/04/24 04:12:08;;;;;;;2.10;1.90;;;18.10;60.20;;;;;;5101474;28;20189;-46
2023/04/24 04:14:39;;;;;;;2.17;1.80;;;18.10;60.10;;;;;;5089501;28;20220;-46
2023/04/24 04:17:10;;;;;;;2.13;1.90;;;18.00;60.10;;;;;;5093535;28;20270;-46
2023/04/24 04:19:41;;;;;;;2.70;1.90;;;18.10;60.20;;;;;;5094856;28;20722;-46
2023/04/24 04:22:12;;;;;;;3.50;2.20;;;18.10;60.10;;;;;;5102010;28;20292;-46
2023/04/24 04:24:44;;;;;;;2.60;1.73;;;18.10;60.10;;;;;;5087947;28;20201;-46
2023/04/24 04:27:24;;;;;;;3.27;1.90;;;18.10;60.10;;;;;;5096554;28;20274;-46
2023/04/24 04:29:57;;;;;;;2.87;2.00;;;18.10;60.10;;;;;;5089008;28;20209;-46
2023/04/24 04:32:26;;;;;;;4.40;1.70;;;18.10;60.10;;;;;;5086555;28;20200;-45
2023/04/24 04:35:02;;;;;;;3.40;1.80;;;18.10;60.10;;;;;;5073361;28;20227;-45
2023/04/24 04:38:08;;;;;;;2.53;2.13;;;18.10;60.10;;;;;;5086182;28;20568;-47
2023/04/24 04:40:38;;;;;;;2.57;1.90;;;18.10;60.10;;;;;;5091234;28;20282;-46
2023/04/24 04:43:24;;;;;;;3.20;1.80;;;18.00;60.10;;;;;;5090070;28;20642;-46
2023/04/24 04:46:19;;;;;;;2.47;1.80;;;18.00;60.10;;;;;;5079473;28;20200;-48
2023/04/24 04:48:54;;;;;;;4.80;2.00;;;18.10;60.10;;;;;;5089940;28;20212;-47
2023/04/24 04:51:29;;;;;;;2.37;2.07;;;18.00;60.00;;;;;;5098334;28;20235;-47
2023/04/24 04:54:00;;;;;;;4.10;2.10;;;18.00;60.00;;;;;;5077955;28;20220;-47
2023/04/24 04:56:44;;;;;;;3.50;1.83;;;18.00;59.90;;;;;;5087804;28;20250;-46
2023/04/24 04:59:16;;;;;;;3.10;1.90;;;18.00;59.90;;;;;;5086004;28;20290;-47
2023/04/24 05:01:46;;;;;;;2.03;1.60;;;18.00;60.50;;;;;;5091474;28;20203;-48
2023/04/24 05:04:15;;;;;;;3.53;2.00;;;18.00;59.80;;;;;;5087474;28;20205;-48
2023/04/24 05:06:47;;;;;;;2.27;2.00;;;18.00;59.70;;;;;;5078932;28;20200;-47
2023/04/24 05:09:21;;;;;;;2.80;2.10;;;18.00;59.70;;;;;;5082335;28;20189;-47
2023/04/24 05:11:53;;;;;;;2.07;1.87;;;18.00;59.60;;;;;;5087864;28;20653;-47
2023/04/24 05:14:22;;;;;;;2.50;1.60;;;18.00;59.60;;;;;;5100442;28;20225;-47
2023/04/24 05:16:50;;;;;;;2.57;1.80;;;18.00;59.60;;;;;;5086258;28;20212;-46
2023/04/24 05:19:22;;;;;;;1.70;1.57;;;18.00;59.50;;;;;;5086211;28;20305;-46
2023/04/24 05:21:54;;;;;;;2.80;1.90;;;18.00;59.50;;;;;;5090924;28;20197;-46
2023/04/24 05:24:24;;;;;;;1.90;1.70;;;18.00;59.60;;;;;;5089164;28;20645;-46
2023/04/24 05:26:55;;;;;;;3.37;1.50;;;18.00;59.60;;;;;;5089164;28;20208;-46
2023/04/24 05:29:26;;;;;;;3.30;1.83;;;18.00;59.70;;;;;;5086242;28;20209;-46
2023/04/24 05:31:57;;;;;;;2.87;1.80;;;18.00;59.70;;;;;;5085190;28;20629;-45
2023/04/24 05:34:28;;;;;;;2.93;1.80;;;18.00;59.70;;;;;;5088711;28;20204;-45
2023/04/24 05:36:57;;;;;;;3.80;2.33;;;18.00;59.80;;;;;;5093351;28;20228;-45
2023/04/24 05:39:27;;;;;;;2.83;1.80;;;18.00;59.80;;;;;;5073168;28;20319;-45
2023/04/24 05:41:57;;;;;;;3.50;1.67;;;18.00;59.90;;;;;;5088476;28;20185;-46
2023/04/24 05:44:27;;;;;;;3.83;2.00;;;18.00;59.80;;;;;;5088545;28;20213;-46
2023/04/24 05:46:56;;;;;;;2.80;1.90;;;18.00;59.80;;;;;;5063441;28;20201;-46
2023/04/24 05:49:29;;;;;;;4.17;1.87;;;18.00;59.80;;;;;;5093748;28;20197;-47
2023/04/24 05:51:58;;;;;;;4.53;1.70;;;18.00;59.80;;;;;;5091758;28;20205;-45
2023/04/24 05:54:36;;;;;;;2.03;1.80;;;18.00;59.70;;;;;;5091949;28;20220;-45
2023/04/24 05:57:07;;;;;;;4.80;2.07;;;18.00;59.70;;;;;;5087810;28;20607;-46
2023/04/24 05:59:40;;;;;;;2.80;1.70;;;17.90;59.60;;;;;;5087881;28;20212;-46
2023/04/24 06:02:13;;;;;;;2.40;1.77;;;18.00;59.60;;;;;;5071166;28;20568;-46
2023/04/24 06:04:42;;;;;;;3.20;1.60;;;18.00;59.60;;;;;;5088799;28;20213;-46
2023/04/24 06:07:13;;;;;;;1.83;1.53;;;17.90;59.50;;;;;;5087685;28;20211;-47
2023/04/24 06:09:44;;;;;;;2.37;1.70;;;17.90;59.50;;;;;;5090193;28;20615;-46
2023/04/24 06:12:35;;;;;;;2.90;1.63;;;17.90;59.40;;;;;;5086999;28;20209;-46
2023/04/24 06:15:14;;;;;;;3.00;1.30;;;17.90;59.40;;;;;;5094088;28;20226;-47
2023/04/24 06:17:43;;;;;;;2.00;1.37;;;17.90;59.40;;;;;;5072030;28;20200;-47
2023/04/24 06:20:13;;;;;;;2.63;1.47;;;17.90;59.40;;;;;;5091337;28;20518;-46
2023/04/24 06:22:45;;;;;;;2.10;1.40;;;18.00;59.50;;;;;;5094474;28;20203;-45
2023/04/24 06:25:16;;;;;;;1.53;1.10;;;17.90;59.50;;;;;;5085127;28;20205;-45
2023/04/24 06:27:43;;;;;;;2.03;1.10;;;17.90;59.50;;;;;;5082878;28;20209;-45
2023/04/24 06:30:11;;;;;;;2.90;1.27;;;17.90;59.50;;;;;;5087097;28;20204;-45
2023/04/24 06:32:43;;;;;;;2.70;1.50;;;17.90;59.40;;;;;;5057261;28;20197;-45
2023/04/24 06:35:14;;;;;;;1.50;1.17;;;17.90;59.40;;;;;;5089174;28;20333;-45
2023/04/24 06:37:47;;;;;;;2.17;1.20;;;17.90;59.40;;;;;;5087543;28;20197;-45
2023/04/24 06:40:18;;;;;;;1.80;1.00;;;17.90;59.30;;;;;;5087593;28;20205;-46
2023/04/24 06:42:49;;;;;;;1.87;1.30;;;17.90;59.30;;;;;;5073817;28;20201;-46
2023/04/24 06:45:24;;;;;;;6.63;1.23;;;17.90;59.30;;;;;;5090295;28;20193;-46
2023/04/24 06:47:56;;;;;;;2.80;1.10;;;17.90;59.30;;;;;;5091062;28;20220;-47
2023/04/24 06:50:26;;;;;;;2.90;1.10;;;17.90;59.40;;;;;;5090460;28;20219;-47
2023/04/24 06:52:58;;;;;;;1.33;1.10;;;17.90;59.30;;;;;;5086995;28;20197;-46
2023/04/24 06:55:28;;;;;;;1.50;0.70;;;17.90;59.30;;;;;;5091532;28;20212;-46
2023/04/24 06:58:06;;;;;;;1.13;0.70;;;17.90;59.30;;;;;;5074879;28;20196;-45
2023/04/24 07:00:34;;;;;;;1.63;1.07;;;17.90;59.50;;;;;;5090285;28;20220;-45
2023/04/24 07:03:05;;;;;;;3.43;1.50;;;17.90;59.90;;;;;;5085898;28;20196;-46
2023/04/24 07:05:39;;;;;;;2.73;1.53;;;17.90;60.80;;;;;;5091678;28;20211;-46
2023/04/24 07:08:11;;;;;;;8.57;2.20;;;18.00;61.00;;;;;;5081578;28;20197;-46
2023/04/24 07:10:41;;;;;;;5.77;2.10;;;18.00;61.50;;;;;;5093975;28;20184;-47
2023/04/24 07:13:18;;;;;;;11.63;2.00;;;18.10;61.70;;;;;;5093441;28;20255;-48
2023/04/24 07:15:48;;;;;;;7.63;2.20;;;18.10;62.00;;;;;;5088752;28;20241;-48
2023/04/24 07:18:20;;;;;;;12.30;2.20;;;18.20;62.20;;;;;;5090009;28;20185;-47
2023/04/24 07:21:08;;;;;;;11.77;2.63;;;18.30;62.30;;;;;;5070048;28;20228;-47
2023/04/24 07:23:35;;;;;;;8.70;2.07;;;18.30;62.30;;;;;;5094288;28;20835;-47
2023/04/24 07:26:06;;;;;;;7.07;2.10;;;18.40;62.30;;;;;;5099044;28;20194;-47
2023/04/24 07:28:35;;;;;;;6.17;2.30;;;18.50;61.90;;;;;;5095404;28;20330;-47
2023/04/24 07:31:10;;;;;;;6.23;2.33;;;18.60;62.40;;;;;;5094816;28;20497;-48
2023/04/24 07:33:40;;;;;;;7.03;1.77;;;18.60;61.10;;;;;;5094020;28;20557;-48
2023/04/24 07:36:08;;;;;;;5.87;2.03;;;18.80;61.10;;;;;;5089929;28;20662;-47
2023/04/24 07:38:56;;;;;;;7.97;1.83;;;18.80;61.50;;;;;;5091789;28;20634;-46
2023/04/24 07:41:27;;;;;;;7.87;2.17;;;18.90;60.70;;;;;;5086844;28;20209;-47
2023/04/24 07:43:59;;;;;;;6.77;2.47;;;19.00;60.20;;;;;;5089376;28;20200;-47
2023/04/24 07:46:33;;;;;;;7.17;2.50;;;19.00;59.90;;;;;;5084055;28;20203;-47
2023/04/24 07:49:05;;;;;;;5.57;2.30;;;19.10;59.30;;;;;;5076346;28;21559;-47
2023/04/24 07:51:41;;;;;;;3.90;2.40;;;19.10;59.10;;;;;;5087672;28;20204;-47
2023/04/24 07:54:12;;;;;;;4.77;2.50;;;19.20;58.50;;;;;;5090045;28;20240;-46
2023/04/24 07:56:46;;;;;;;3.50;2.50;;;19.30;58.60;;;;;;5073053;28;20185;-48
2023/04/24 07:59:21;;;;;;;3.07;2.30;;;19.30;58.20;;;;;;5087177;28;20665;-48
2023/04/24 08:01:55;;;;;;;5.20;2.30;;;19.40;58.10;;;;;;5096036;28;20192;-48
2023/04/24 08:04:23;;;;;;;4.87;2.50;;;19.40;57.70;;;;;;5074757;28;20205;-47
2023/04/24 08:06:52;;;;;;;5.70;2.50;;;19.40;57.80;;;;;;5091451;28;20224;-47
2023/04/24 08:09:23;;;;;;;3.47;2.43;;;19.50;57.50;;;;;;5091261;28;20212;-46
2023/04/24 08:11:55;;;;;;;4.47;2.53;;;19.50;57.10;;;;;;5082967;28;20207;-46
2023/04/24 08:14:26;;;;;;;4.73;2.20;;;19.40;56.60;;;;;;5095264;28;20217;-46
2023/04/24 08:16:56;;;;;;;2.87;2.00;;;19.40;56.80;;;;;;5102498;28;20192;-46
2023/04/24 08:19:26;;;;;;;3.87;2.00;;;19.30;56.80;;;;;;5096192;28;20204;-47
2023/04/24 08:21:59;;;;;;;5.33;2.30;;;19.20;56.70;;;;;;5094693;28;20196;-46
2023/04/24 08:24:30;;;;;;;4.43;1.90;;;19.20;56.60;;;;;;5095822;28;20218;-47
2023/04/24 08:27:01;;;;;;;3.30;2.00;;;19.20;56.70;;;;;;5081238;28;20196;-47
2023/04/24 08:29:33;;;;;;;4.80;2.20;;;19.20;56.90;;;;;;5089236;28;20217;-47
2023/04/24 08:32:07;;;;;;;4.20;2.00;;;19.30;57.20;;;;;;5093401;28;20192;-47
2023/04/24 08:34:39;;;;;;;3.23;2.10;;;19.40;57.20;;;;;;5104588;28;20660;-46
2023/04/24 08:37:07;;;;;;;4.33;2.40;;;19.40;57.60;;;;;;5096530;28;20658;-47
2023/04/24 08:39:37;;;;;;;3.57;1.73;;;19.50;57.30;;;;;;5094662;28;20205;-47
2023/04/24 08:42:12;;;;;;;3.93;2.00;;;19.50;57.40;;;;;;5095308;28;20254;-46
2023/04/24 08:44:45;;;;;;;5.57;2.20;;;19.60;57.00;;;;;;5074483;28;20204;-46
2023/04/24 08:47:19;;;;;;;3.43;2.00;;;19.60;57.30;;;;;;5072890;28;20689;-48
2023/04/24 08:49:50;;;;;;;3.13;2.00;;;19.70;57.80;;;;;;5070771;28;20716;-48
2023/04/24 08:52:21;;;;;;;3.60;1.90;;;19.80;56.70;;;;;;5069230;28;20205;-47
2023/04/24 08:54:53;;;;;;;4.53;1.87;;;19.80;57.30;;;;;;5062595;28;20232;-46
2023/04/24 08:57:30;;;;;;;5.90;2.30;;;19.90;57.00;;;;;;5079769;28;20196;-47
2023/04/24 09:00:03;;;;;;;4.40;2.10;;;19.90;57.10;;;;;;5105778;28;20681;-47
2023/04/24 09:02:34;;;;;;;2.30;1.60;;;19.90;56.90;;;;;;5085377;28;20209;-47
2023/04/24 09:05:09;;;;;;;4.53;2.20;;;20.00;56.10;;;;;;5085056;28;20213;-47
2023/04/24 09:07:44;;;;;;;2.73;2.00;;;20.00;56.50;;;;;;5090493;28;20240;-47
2023/04/24 09:10:15;;;;;;;3.40;2.10;;;20.10;56.60;;;;;;5071082;28;20216;-47
2023/04/24 09:12:49;;;;;;;4.70;1.80;;;20.10;56.80;;;;;;5092490;28;21589;-47
2023/04/24 09:15:22;;;;;;;3.17;1.67;;;20.10;56.70;;;;;;5070419;28;20293;-46
2023/04/24 09:17:52;;;;;;;4.63;2.00;;;20.10;56.40;;;;;;5067893;28;20193;-46
2023/04/24 09:20:25;;;;;;;4.17;1.80;;;20.20;56.30;;;;;;5090287;28;20579;-47
2023/04/24 09:23:00;;;;;;;2.90;1.80;;;20.20;55.90;;;;;;5085599;28;20254;-47
2023/04/24 09:25:40;;;;;;;5.60;1.97;;;20.20;55.80;;;;;;5087550;28;20201;-48
2023/04/24 09:28:11;;;;;;;5.77;2.17;;;20.20;56.10;;;;;;5067497;28;20669;-46
2023/04/24 09:30:42;;;;;;;4.63;1.63;;;20.20;56.40;;;;;;5089041;28;20205;-47
2023/04/24 09:33:15;;;;;;;6.13;1.97;;;20.20;56.40;;;;;;5073839;28;20625;-46
2023/04/24 09:35:52;;;;;;;2.63;1.53;;;20.20;56.20;;;;;;5069326;28;20320;-47
2023/04/24 09:38:37;;;;;;;3.63;1.70;;;20.30;55.90;;;;;;5067393;28;20663;-47
2023/04/24 09:41:15;;;;;;;5.33;1.93;;;20.30;55.70;;;;;;5064562;28;20224;-47
2023/04/24 09:43:43;;;;;;;8.30;1.73;;;20.40;56.20;;;;;;5068927;28;20209;-47
2023/04/24 09:46:18;;;;;;;8.50;2.17;;;20.30;55.60;;;;;;5066721;28;20201;-47
2023/04/24 09:48:49;;;;;;;4.87;1.90;;;20.40;56.20;;;;;;5066269;28;20209;-47
2023/04/24 09:51:35;;;;;;;3.67;1.73;;;20.40;56.20;;;;;;5065708;28;20539;-47
2023/04/24 09:54:22;;;;;;;3.77;1.63;;;20.40;56.40;;;;;;5057084;28;20615;-47
2023/04/24 09:56:51;;;;;;;3.93;1.80;;;20.40;55.80;;;;;;5062448;28;20201;-46
2023/04/24 09:59:23;;;;;;;8.60;2.30;;;20.40;55.00;;;;;;5072720;28;20634;-46
2023/04/24 10:01:53;;;;;;;5.83;2.20;;;20.30;56.40;;;;;;5068230;28;20193;-46
2023/04/24 10:04:23;;;;;;;4.93;2.17;;;20.20;57.20;;;;;;5063558;28;20214;-46
2023/04/24 10:06:57;;;;;;;4.20;1.60;;;20.10;57.60;;;;;;5070241;28;20947;-46
2023/04/24 10:09:28;;;;;;;4.67;1.87;;;20.00;58.00;;;;;;5077319;28;20209;-46
2023/04/24 10:12:01;;;;;;;6.03;2.23;;;19.90;58.20;;;;;;5070998;28;20521;-46
2023/04/24 10:14:33;;;;;;;7.63;1.70;;;19.80;58.70;;;;;;5057339;28;20189;-46
2023/04/24 10:17:06;;;;;;;4.60;2.13;;;19.70;59.10;;;;;;5072944;28;20209;-46
2023/04/24 10:19:40;;;;;;;5.73;2.47;;;19.70;59.50;;;;;;5075846;28;20551;-46
2023/04/24 10:22:09;;;;;;;4.50;2.23;;;19.60;59.80;;;;;;5052358;28;20862;-46
2023/04/24 10:24:42;;;;;;;3.53;1.70;;;19.50;59.90;;;;;;5052863;28;20201;-46
2023/04/24 10:27:15;;;;;;;2.70;1.50;;;19.50;60.10;;;;;;5051767;28;20197;-46
2023/04/24 10:29:49;;;;;;;3.53;1.90;;;19.40;60.20;;;;;;5068592;28;20201;-46
2023/04/24 10:32:21;;;;;;;5.30;1.90;;;19.40;60.30;;;;;;5065223;28;20607;-47
2023/04/24 10:34:53;;;;;;;6.03;1.90;;;19.50;59.80;;;;;;5073261;28;20207;-47
2023/04/24 10:37:51;;;;;;;4.90;1.70;;;19.50;59.60;;;;;;5075717;28;20232;-47
2023/04/24 10:40:31;;;;;;;3.70;1.77;;;19.60;59.10;;;;;;5058861;28;20726;-47
2023/04/24 10:43:10;;;;;;;7.10;1.63;;;19.70;58.90;;;;;;5072579;28;20190;-47
2023/04/24 10:46:13;;;;;;;5.37;1.90;;;19.70;58.40;;;;;;5040364;28;20289;-46
2023/04/24 10:48:56;;;;;;;2.97;1.40;;;19.80;58.20;;;;;;5070696;28;20186;-47
2023/04/24 10:51:46;;;;;;;8.23;1.63;;;19.90;58.10;;;;;;5034922;28;20239;-46
2023/04/24 10:54:31;;;;;;;3.47;1.30;;;19.90;58.30;;;;;;5044606;28;20201;-47
2023/04/24 10:57:29;;;;;;;2.53;1.43;;;20.00;57.70;;;;;;5069744;28;20213;-47
2023/04/24 11:00:19;;;;;;;2.87;1.40;;;20.10;57.90;;;;;;5072731;28;20202;-48
2023/04/24 11:02:53;;;;;;;3.27;1.67;;;20.20;58.20;;;;;;5076252;28;20194;-47
2023/04/24 11:05:50;;;;;;;2.70;1.30;;;20.20;57.30;;;;;;5066012;28;20221;-47
2023/04/24 11:08:42;;;;;;;2.97;1.13;;;20.30;57.30;;;;;;5073504;28;20682;-46
2023/04/24 11:11:21;;;;;;;3.97;1.40;;;20.30;56.80;;;;;;5045137;28;20202;-46
2023/04/24 11:13:57;;;;;;;3.33;1.30;;;20.40;56.30;;;;;;5045077;28;20198;-46
2023/04/24 11:16:45;;;;;;;3.47;1.27;;;20.50;56.20;;;;;;5075840;28;20688;-47
2023/04/24 11:19:19;;;;;;;2.47;1.30;;;20.50;55.90;;;;;;5072279;28;20205;-47
2023/04/24 11:22:04;;;;;;;2.40;1.10;;;20.50;55.80;;;;;;5071135;28;20201;-46
2023/04/24 11:24:53;;;;;;;6.73;1.30;;;20.60;56.10;;;;;;5052089;28;20197;-46
2023/04/24 11:27:33;;;;;;;1.87;1.00;;;20.60;56.10;;;;;;5069618;28;20884;-46
2023/04/24 11:30:16;;;;;;;3.20;1.13;;;20.60;55.60;;;;;;5070974;28;20864;-46
2023/04/24 11:32:51;;;;;;;2.67;1.17;;;20.60;55.60;;;;;;5052825;28;20205;-47
2023/04/24 11:35:29;;;;;;;2.93;1.07;;;20.70;55.80;;;;;;5054303;28;20241;-46
2023/04/24 11:38:02;;;;;;;2.83;1.00;;;20.70;55.70;;;;;;5049054;28;20571;-46
2023/04/24 11:40:35;;;;;;;2.47;1.00;;;20.80;55.50;;;;;;5061444;28;20240;-48
2023/04/24 11:43:09;;;;;;;4.03;1.00;;;20.80;55.00;;;;;;5063507;28;20198;-48
2023/04/24 11:45:49;;;;;;;3.97;1.00;;;20.80;55.30;;;;;;5072547;28;20189;-47
2023/04/24 11:48:22;;;;;;;3.17;0.97;;;20.80;54.90;;;;;;5069435;28;20365;-47
2023/04/24 11:50:53;;;;;;;3.03;1.17;;;20.80;55.20;;;;;;5068621;28;20548;-46
2023/04/24 11:53:26;;;;;;;2.73;1.20;;;20.80;55.30;;;;;;5050260;28;20300;-47
2023/04/24 11:56:02;;;;;;;2.83;1.03;;;20.80;55.20;;;;;;5069000;28;20216;-47
2023/04/24 11:58:35;;;;;;;3.20;0.93;;;20.80;55.50;;;;;;5050361;28;20194;-47
2023/04/24 12:01:12;;;;;;;3.53;1.17;;;20.90;55.40;;;;;;5047499;28;20684;-48
2023/04/24 12:03:47;;;;;;;2.90;1.10;;;20.90;55.00;;;;;;5069828;28;20242;-48
2023/04/24 12:06:19;;;;;;;1.83;0.93;;;20.90;55.20;;;;;;5071571;28;20201;-47
2023/04/24 12:08:52;;;;;;;6.97;1.60;;;20.90;55.10;;;;;;5075925;28;20198;-47
2023/04/24 12:11:20;;;;;;;2.73;1.07;;;20.90;55.20;;;;;;5069070;28;20604;-47
2023/04/24 12:13:50;;;;;;;3.23;0.93;;;21.00;55.80;;;;;;5067894;28;20620;-48
2023/04/24 12:16:23;;;;;;;2.20;1.03;;;21.00;55.50;;;;;;5065286;28;20335;-47
2023/04/24 12:18:53;;;;;;;2.20;1.10;;;20.90;55.20;;;;;;5071141;28;20240;-47
2023/04/24 12:21:26;;;;;;;2.27;0.83;;;21.00;55.90;;;;;;5069946;28;20540;-47
2023/04/24 12:23:59;;;;;;;2.60;0.90;;;21.00;55.90;;;;;;5073373;28;20193;-46
2023/04/24 12:26:29;;;;;;;2.63;0.80;;;21.00;55.60;;;;;;5068082;28;20201;-47
2023/04/24 12:29:08;;;;;;;3.10;0.90;;;21.00;55.00;;;;;;5062569;28;20213;-48
2023/04/24 12:31:41;;;;;;;2.50;0.90;;;21.00;55.20;;;;;;5068348;28;20239;-47
2023/04/24 12:34:21;;;;;;;0.63;0.60;;;21.10;55.20;;;;;;5071582;28;20269;-48
2023/04/24 12:36:49;;;;;;;2.57;0.80;;;21.10;55.00;;;;;;5048466;28;20245;-48
2023/04/24 12:39:24;;;;;;;2.00;1.00;;;21.10;55.00;;;;;;5063512;28;20225;-47
2023/04/24 12:42:01;;;;;;;1.80;0.97;;;21.10;55.00;;;;;;5056269;28;20213;-46
2023/04/24 12:44:46;;;;;;;1.60;0.70;;;21.10;54.70;;;;;;5047342;28;20207;-46
2023/04/24 12:47:18;;;;;;;1.63;0.70;;;21.10;55.00;;;;;;5035344;28;20206;-48
2023/04/24 12:49:50;;;;;;;1.60;0.67;;;21.10;55.20;;;;;;5055480;28;20273;-48
2023/04/24 12:52:20;;;;;;;2.33;0.60;;;21.20;54.60;;;;;;5042929;28;20228;-47
2023/04/24 12:54:50;;;;;;;0.80;0.50;;;21.20;55.00;;;;;;5055826;28;20532;-48
2023/04/24 12:57:19;;;;;;;3.13;0.90;;;21.20;54.60;;;;;;5031892;28;20227;-47
2023/04/24 12:59:47;;;;;;;0.67;0.47;;;21.20;54.80;;;;;;5041713;28;20193;-48
2023/04/24 13:02:19;;;;;;;2.53;1.00;;;21.30;54.80;;;;;;5054939;28;20200;-47
2023/04/24 13:04:52;;;;;;;1.93;0.80;;;21.30;54.70;;;;;;5050309;28;20198;-47
2023/04/24 13:07:24;;;;;;;2.63;0.87;;;21.30;54.50;;;;;;5047360;28;20198;-47
2023/04/24 13:09:59;;;;;;;1.77;0.73;;;21.40;54.30;;;;;;5045572;28;20225;-47
2023/04/24 13:12:29;;;;;;;1.30;0.70;;;21.30;54.70;;;;;;5030026;28;20203;-47
2023/04/24 13:14:59;;;;;;;1.77;1.00;;;21.40;54.30;;;;;;5024334;28;20218;-47